Time;durP1;ratioP1;P1;durP2;ratioP2;P2;SDS_P1;SDS_P2;PMS_P1;PMS_P2;Temp;Humidity;BMP_temperature;BMP_pressure;BME280_temperature;BME280_humidity;BME280_pressure;Samples;Min_cycle;Max_cycle;Signal;HPM_P1;HPM_P2
2022/12/03 00:00:13;;;;;;;7.40;6.23;;;-0.20;97.30;;;;;;4979096;28;20419;-91
2022/12/03 00:02:39;;;;;;;7.23;5.20;;;-0.20;97.30;;;;;;4960604;28;20187;-90
2022/12/03 00:05:04;;;;;;;10.60;5.93;;;-0.20;97.30;;;;;;4942071;28;20438;-89
2022/12/03 00:07:30;;;;;;;5.40;5.10;;;-0.20;97.30;;;;;;4941859;28;20420;-90
2022/12/03 00:10:04;;;;;;;6.10;4.20;;;-0.20;97.30;;;;;;4950252;28;20206;-90
2022/12/03 00:12:33;;;;;;;9.40;5.07;;;-0.20;97.30;;;;;;4946001;28;20548;-89
2022/12/03 00:15:06;;;;;;;9.10;6.40;;;-0.20;97.30;;;;;;4961824;23;20505;-90
2022/12/03 00:17:34;;;;;;;31.43;7.00;;;-0.20;97.30;;;;;;4982198;28;20470;-90
2022/12/03 00:20:05;;;;;;;13.83;4.27;;;-0.20;97.30;;;;;;4957536;28;20494;-89
2022/12/03 00:22:34;;;;;;;10.57;7.27;;;-0.20;97.30;;;;;;5025336;23;20580;-86
2022/12/03 00:25:33;;;;;;;11.73;6.30;;;-0.20;97.30;;;;;;5036229;28;20409;-85
2022/12/03 00:28:05;;;;;;;7.40;3.23;;;-0.30;97.30;;;;;;5021674;28;20422;-81
2022/12/03 00:30:33;;;;;;;10.17;6.30;;;-0.30;97.30;;;;;;4972916;28;20442;-85
2022/12/03 00:33:04;;;;;;;6.43;4.17;;;-0.30;97.30;;;;;;4964219;28;20442;-81
2022/12/03 00:35:33;;;;;;;11.73;6.20;;;-0.30;97.30;;;;;;4972395;28;20499;-85
2022/12/03 00:38:01;;;;;;;8.70;5.10;;;-0.30;97.30;;;;;;5025711;28;20462;-88
2022/12/03 00:40:34;;;;;;;4.83;4.10;;;-0.30;97.30;;;;;;4977913;28;20806;-86
2022/12/03 00:42:59;;;;;;;3.30;2.67;;;-0.30;97.30;;;;;;4970223;28;20462;-86
2022/12/03 00:45:25;;;;;;;13.23;5.93;;;-0.30;97.30;;;;;;5020483;28;20933;-87
2022/12/03 00:47:50;;;;;;;15.97;6.20;;;-0.30;97.30;;;;;;5012590;28;20179;-87
2022/12/03 00:50:16;;;;;;;17.50;7.03;;;-0.30;97.30;;;;;;5018295;28;20179;-85
2022/12/03 00:52:41;;;;;;;11.93;8.80;;;-0.30;97.30;;;;;;5007646;28;20644;-87
2022/12/03 00:55:07;;;;;;;6.70;5.63;;;-0.30;97.30;;;;;;5005731;28;20187;-87
2022/12/03 00:57:33;;;;;;;6.10;2.80;;;-0.30;97.30;;;;;;4991288;28;20223;-86
2022/12/03 00:59:58;;;;;;;15.10;8.10;;;-0.30;97.30;;;;;;5023853;28;20505;-82
2022/12/03 01:02:24;;;;;;;6.40;6.03;;;-0.30;97.30;;;;;;5020335;28;20215;-86
2022/12/03 01:04:49;;;;;;;21.47;6.90;;;-0.40;97.30;;;;;;5020405;28;20218;-84
2022/12/03 01:07:15;;;;;;;9.87;7.10;;;-0.40;97.30;;;;;;4975667;28;20179;-86
2022/12/03 01:09:40;;;;;;;6.30;5.43;;;-0.40;97.30;;;;;;4952793;28;20642;-86
2022/12/03 01:12:06;;;;;;;14.80;9.47;;;-0.40;97.30;;;;;;4954851;28;20202;-87
2022/12/03 01:14:32;;;;;;;3.83;3.63;;;-0.40;97.30;;;;;;5038728;28;20182;-86
2022/12/03 01:16:57;;;;;;;4.70;3.73;;;-0.40;97.30;;;;;;5038359;28;20186;-87
2022/12/03 01:19:23;;;;;;;6.33;4.10;;;-0.40;97.30;;;;;;4951654;28;20203;-85
2022/12/03 01:21:50;;;;;;;14.20;6.43;;;-0.40;97.30;;;;;;4995192;28;20227;-87
2022/12/03 01:24:18;;;;;;;10.30;7.63;;;-0.40;97.30;;;;;;5026788;28;20236;-89
2022/12/03 01:26:43;;;;;;;8.30;5.40;;;-0.40;97.30;;;;;;4979766;28;20516;-87
2022/12/03 01:29:09;;;;;;;12.30;7.50;;;-0.40;97.30;;;;;;5031685;28;20504;-87
2022/12/03 01:34:19;;;;;;;5.50;3.40;;;-0.40;97.30;;;;;;4944214;28;20203;-87
2022/12/03 01:36:44;;;;;;;9.80;4.27;;;-0.40;97.30;;;;;;5014816;28;20443;-89
2022/12/03 01:39:10;;;;;;;8.30;5.27;;;-0.40;97.30;;;;;;5024352;28;20218;-86
2022/12/03 01:41:36;;;;;;;3.77;3.57;;;-0.40;97.30;;;;;;4969897;28;20198;-86
2022/12/03 01:44:03;;;;;;;4.60;3.57;;;-0.40;97.30;;;;;;5005063;28;20274;-88
2022/12/03 01:46:39;;;;;;;27.50;11.47;;;-0.40;97.30;;;;;;5003608;28;20416;-85
2022/12/03 01:49:05;;;;;;;5.47;5.17;;;-0.40;97.30;;;;;;4952071;28;20993;-86
2022/12/03 01:51:30;;;;;;;6.53;2.50;;;-0.30;97.30;;;;;;4993093;28;20525;-88
2022/12/03 01:54:00;;;;;;;4.50;4.17;;;-0.30;97.30;;;;;;4992341;28;20265;-85
2022/12/03 01:56:25;;;;;;;8.03;5.07;;;-0.40;97.30;;;;;;5024462;28;20240;-83
2022/12/03 01:58:51;;;;;;;5.20;4.90;;;-0.40;97.30;;;;;;4987805;28;20842;-87
2022/12/03 02:01:17;;;;;;;8.20;5.07;;;-0.40;97.30;;;;;;5011497;28;20414;-88
2022/12/03 02:03:45;;;;;;;16.60;8.53;;;-0.40;97.30;;;;;;4952443;29;20180;-87
2022/12/03 02:06:17;;;;;;;13.07;6.03;;;-0.40;97.30;;;;;;5016884;28;20419;-88
2022/12/03 02:08:43;;;;;;;8.53;5.53;;;-0.40;97.30;;;;;;5035577;28;20422;-87
2022/12/03 02:11:30;;;;;;;9.87;5.17;;;-0.40;97.30;;;;;;4957680;28;20430;-87
2022/12/03 02:14:05;;;;;;;12.63;8.40;;;-0.40;97.30;;;;;;5002407;28;20548;-88
2022/12/03 02:16:30;;;;;;;28.73;7.60;;;-0.40;97.30;;;;;;5002391;28;20530;-88
2022/12/03 02:18:57;;;;;;;3.60;3.40;;;-0.40;97.30;;;;;;4954412;28;21000;-88
2022/12/03 02:21:27;;;;;;;4.67;4.43;;;-0.40;97.30;;;;;;4952744;28;20672;-88
2022/12/03 02:24:24;;;;;;;8.13;6.90;;;-0.40;97.30;;;;;;4953118;28;20968;-87
2022/12/03 02:26:50;;;;;;;6.87;5.20;;;-0.40;97.30;;;;;;4977402;28;20406;-87
2022/12/03 02:29:16;;;;;;;13.23;5.57;;;-0.40;97.30;;;;;;4970966;28;20423;-83
2022/12/03 02:31:42;;;;;;;7.03;4.27;;;-0.40;97.30;;;;;;5026065;28;20249;-87
2022/12/03 02:34:09;;;;;;;9.07;4.47;;;-0.40;97.30;;;;;;4946999;28;20175;-85
2022/12/03 02:36:36;;;;;;;10.20;5.60;;;-0.40;97.30;;;;;;4944707;28;20779;-88
2022/12/03 02:39:02;;;;;;;6.73;3.40;;;-0.40;97.30;;;;;;4961084;28;20461;-90
2022/12/03 02:44:12;;;;;;;3.80;3.60;;;-0.40;97.30;;;;;;4964306;28;20442;-88
2022/12/03 02:46:38;;;;;;;11.93;6.93;;;-0.40;97.30;;;;;;5017329;28;20929;-87
2022/12/03 02:49:04;;;;;;;9.00;6.97;;;-0.40;97.30;;;;;;5033085;28;20171;-90
2022/12/03 02:51:31;;;;;;;5.40;4.80;;;-0.40;97.30;;;;;;4952727;28;20245;-88
2022/12/03 02:53:58;;;;;;;8.03;5.10;;;-0.40;97.30;;;;;;4952400;28;20437;-87
2022/12/03 02:56:27;;;;;;;7.60;5.60;;;-0.40;97.30;;;;;;4955892;28;20430;-91
2022/12/03 02:58:57;;;;;;;5.50;3.87;;;-0.40;97.30;;;;;;4990993;28;20462;-85
2022/12/03 03:01:38;;;;;;;15.67;4.20;;;-0.40;97.30;;;;;;4927491;29;20540;-87
2022/12/03 03:04:04;;;;;;;6.90;4.90;;;-0.40;97.30;;;;;;5016900;28;20419;-88
2022/12/03 03:06:30;;;;;;;15.53;5.73;;;-0.40;97.30;;;;;;4940408;28;20262;-88
2022/12/03 03:08:56;;;;;;;19.23;6.57;;;-0.40;97.30;;;;;;4990754;28;20524;-88
2022/12/03 03:11:22;;;;;;;4.23;3.00;;;-0.40;97.30;;;;;;4951411;28;20230;-84
2022/12/03 03:13:48;;;;;;;12.53;6.20;;;-0.40;97.30;;;;;;4938658;29;20434;-87
2022/12/03 03:16:13;;;;;;;5.93;4.80;;;-0.40;97.30;;;;;;5023283;28;20469;-87
2022/12/03 03:18:39;;;;;;;9.40;5.30;;;-0.40;97.30;;;;;;4976229;28;20682;-88
2022/12/03 03:21:05;;;;;;;3.30;3.10;;;-0.40;97.30;;;;;;5016868;28;20186;-86
2022/12/03 03:23:31;;;;;;;14.10;6.10;;;-0.50;97.30;;;;;;4950283;28;20235;-87
2022/12/03 03:26:05;;;;;;;14.70;8.10;;;-0.50;97.30;;;;;;4937142;28;20480;-88
2022/12/03 03:28:33;;;;;;;7.27;5.50;;;-0.50;97.30;;;;;;4946345;28;20418;-86
2022/12/03 03:31:02;;;;;;;7.40;4.53;;;-0.50;97.30;;;;;;4946044;28;20431;-89
2022/12/03 03:33:29;;;;;;;14.30;6.10;;;-0.50;97.30;;;;;;4945607;28;20488;-86
2022/12/03 03:35:55;;;;;;;4.57;3.80;;;-0.50;97.30;;;;;;4986928;28;20416;-85
2022/12/03 03:38:22;;;;;;;8.40;5.03;;;-0.50;97.30;;;;;;4937328;28;20463;-87
2022/12/03 03:40:50;;;;;;;4.57;4.30;;;-0.50;97.30;;;;;;4923274;28;20207;-87
2022/12/03 03:43:16;;;;;;;8.73;4.77;;;-0.50;97.30;;;;;;4950896;28;20780;-86
2022/12/03 03:45:43;;;;;;;11.20;6.60;;;-0.50;97.30;;;;;;4982341;28;20425;-87
2022/12/03 03:48:09;;;;;;;9.83;3.90;;;-0.50;97.30;;;;;;4946208;28;20602;-88
2022/12/03 03:50:35;;;;;;;4.80;4.50;;;-0.50;97.30;;;;;;4981911;28;20506;-87
2022/12/03 03:53:02;;;;;;;3.40;3.27;;;-0.50;97.30;;;;;;4948746;28;20493;-87
2022/12/03 03:55:29;;;;;;;6.03;5.47;;;-0.50;97.30;;;;;;4936609;29;20422;-88
2022/12/03 03:57:54;;;;;;;9.00;6.87;;;-0.50;97.30;;;;;;4936641;28;20423;-87
2022/12/03 04:00:20;;;;;;;11.23;3.13;;;-0.50;97.30;;;;;;4937310;28;20438;-86
2022/12/03 04:02:46;;;;;;;6.80;5.53;;;-0.50;97.30;;;;;;4953471;28;20195;-87
2022/12/03 04:05:17;;;;;;;7.63;7.20;;;-0.50;97.30;;;;;;4946594;29;20180;-87
2022/12/03 04:07:43;;;;;;;3.93;3.73;;;-0.60;97.30;;;;;;4952646;29;20567;-87
2022/12/03 04:12:54;;;;;;;5.70;4.27;;;-0.60;97.30;;;;;;4953369;29;20716;-88
2022/12/03 04:15:19;;;;;;;4.87;3.83;;;-0.60;97.30;;;;;;4945430;28;20419;-87
2022/12/03 04:18:41;;;;;;;6.00;5.70;;;-0.60;97.30;;;;;;4954590;28;20199;-87
2022/12/03 04:20:30;;;;;;;4.03;3.83;;;-0.60;97.30;;;;;;4949277;28;20187;-85
2022/12/03 04:22:56;;;;;;;6.80;5.73;;;-0.60;97.30;;;;;;4954932;28;20644;-85
2022/12/03 04:30:52;;;;;;;9.07;3.27;;;-0.60;97.30;;;;;;4959933;28;20418;-86
2022/12/03 04:36:03;;;;;;;4.40;4.07;;;-0.60;97.30;;;;;;4949312;28;20191;-87
2022/12/03 04:38:28;;;;;;;9.17;6.30;;;-0.60;97.30;;;;;;4962096;28;20469;-89
2022/12/03 04:41:00;;;;;;;11.03;5.30;;;-0.60;97.30;;;;;;4936875;28;20421;-84
2022/12/03 04:43:33;;;;;;;6.70;4.93;;;-0.70;97.30;;;;;;4947604;29;20756;-87
2022/12/03 04:46:01;;;;;;;3.20;3.00;;;-0.70;97.30;;;;;;4945546;29;20455;-88
2022/12/03 04:48:26;;;;;;;11.37;4.60;;;-0.70;97.30;;;;;;4939638;28;20513;-87
2022/12/03 04:50:52;;;;;;;6.53;4.43;;;-0.70;97.30;;;;;;4951149;28;20530;-88
2022/12/03 04:53:18;;;;;;;8.70;5.50;;;-0.70;97.30;;;;;;4936407;28;20223;-88
2022/12/03 04:55:43;;;;;;;14.10;7.30;;;-0.70;97.30;;;;;;4944925;29;20191;-85
2022/12/03 04:58:09;;;;;;;9.67;4.43;;;-0.70;97.30;;;;;;4940167;28;20203;-87
2022/12/03 05:00:34;;;;;;;2.20;2.00;;;-0.70;97.30;;;;;;4953120;28;20183;-87
2022/12/03 05:03:00;;;;;;;3.07;2.63;;;-0.70;97.30;;;;;;4952259;28;20215;-86
2022/12/03 05:05:26;;;;;;;3.70;3.50;;;-0.70;97.30;;;;;;4936468;28;20237;-86
2022/12/03 05:07:51;;;;;;;14.70;5.07;;;-0.70;97.30;;;;;;4940580;28;20179;-87
2022/12/03 05:10:17;;;;;;;9.90;5.53;;;-0.70;97.30;;;;;;4957950;28;20183;-87
2022/12/03 05:12:42;;;;;;;15.00;5.83;;;-0.70;97.30;;;;;;4939366;28;20203;-86
2022/12/03 05:15:08;;;;;;;12.07;4.67;;;-0.70;97.30;;;;;;4948269;28;20591;-86
2022/12/03 05:17:34;;;;;;;4.77;4.47;;;-0.70;97.30;;;;;;4939355;28;20260;-86
2022/12/03 05:22:43;;;;;;;9.93;7.03;;;-0.70;97.30;;;;;;4963431;28;20292;-86
2022/12/03 05:25:09;;;;;;;9.97;5.27;;;-0.70;97.30;;;;;;4951803;28;20995;-86
2022/12/03 05:27:35;;;;;;;16.07;5.23;;;-0.70;97.30;;;;;;4955224;28;20309;-87
2022/12/03 05:30:01;;;;;;;3.47;3.27;;;-0.70;97.30;;;;;;4941345;28;20183;-86
2022/12/03 05:32:27;;;;;;;3.67;3.47;;;-0.70;97.30;;;;;;4951675;28;20466;-85
2022/12/03 05:34:52;;;;;;;11.10;3.87;;;-0.70;97.30;;;;;;4961744;28;20183;-87
2022/12/03 05:37:18;;;;;;;5.10;4.80;;;-0.70;97.30;;;;;;4946229;28;20180;-87
2022/12/03 05:39:43;;;;;;;12.90;5.10;;;-0.70;97.30;;;;;;4962207;28;20551;-86
2022/12/03 05:44:54;;;;;;;6.50;4.67;;;-0.70;97.30;;;;;;4953671;29;20576;-87
2022/12/03 05:47:19;;;;;;;7.63;5.27;;;-0.70;97.30;;;;;;4953773;28;20427;-87
2022/12/03 05:49:45;;;;;;;15.53;6.33;;;-0.60;97.30;;;;;;4973154;28;20194;-85
2022/12/03 05:52:10;;;;;;;2.93;2.73;;;-0.70;97.30;;;;;;4936737;29;20294;-85
2022/12/03 05:54:36;;;;;;;8.33;7.80;;;-0.70;97.30;;;;;;4954388;28;20198;-86
2022/12/03 05:57:02;;;;;;;3.60;3.07;;;-0.70;97.30;;;;;;4948743;28;20184;-89
2022/12/03 05:59:27;;;;;;;4.90;4.60;;;-0.70;97.30;;;;;;4959633;28;20203;-93
2022/12/03 06:02:05;;;;;;;5.70;3.73;;;-0.70;97.30;;;;;;4969760;28;20188;-91
2022/12/03 06:04:31;;;;;;;8.47;5.13;;;-0.70;97.30;;;;;;4959442;28;20225;-90
2022/12/03 06:06:56;;;;;;;2.13;1.90;;;-0.70;97.30;;;;;;4973927;28;20451;-92
2022/12/03 06:09:22;;;;;;;4.30;3.00;;;-0.70;97.30;;;;;;4965118;28;20179;-88
2022/12/03 06:11:52;;;;;;;5.97;5.00;;;-0.70;97.30;;;;;;4949492;28;20246;-92
2022/12/03 06:14:17;;;;;;;13.10;4.87;;;-0.70;97.30;;;;;;4974470;28;20152;-91
2022/12/03 06:16:43;;;;;;;3.57;3.37;;;-0.70;97.30;;;;;;4969539;28;20452;-93
2022/12/03 06:19:08;;;;;;;5.17;4.50;;;-0.70;97.30;;;;;;4939188;29;20242;-87
2022/12/03 06:21:34;;;;;;;9.80;5.00;;;-0.70;97.30;;;;;;4953568;28;20230;-85
2022/12/03 06:24:00;;;;;;;22.93;7.07;;;-0.70;97.30;;;;;;4943070;28;20187;-88
2022/12/03 06:26:25;;;;;;;3.93;3.73;;;-0.70;97.30;;;;;;4935062;28;20203;-86
2022/12/03 06:28:51;;;;;;;12.20;5.43;;;-0.60;97.30;;;;;;4946962;28;20214;-87
2022/12/03 06:31:16;;;;;;;18.50;3.17;;;-0.60;97.30;;;;;;4952167;28;20658;-87
2022/12/03 06:33:42;;;;;;;9.67;7.40;;;-0.60;97.30;;;;;;4952428;28;20230;-86
2022/12/03 06:36:07;;;;;;;18.20;6.33;;;-0.60;97.30;;;;;;4958693;22;20290;-87
2022/12/03 06:38:33;;;;;;;7.00;4.10;;;-0.60;97.30;;;;;;4930596;29;20240;-88
2022/12/03 06:40:58;;;;;;;9.43;5.80;;;-0.60;97.30;;;;;;4911302;28;20175;-88
2022/12/03 06:43:24;;;;;;;3.97;3.63;;;-0.60;97.30;;;;;;4909760;29;20183;-86
2022/12/03 06:45:50;;;;;;;6.83;3.63;;;-0.60;97.30;;;;;;4903618;29;20212;-87
2022/12/03 06:48:15;;;;;;;8.37;4.47;;;-0.60;97.30;;;;;;4960043;28;20233;-86
2022/12/03 06:50:41;;;;;;;8.50;5.57;;;-0.60;97.30;;;;;;4916539;28;20330;-86
2022/12/03 06:53:06;;;;;;;8.43;5.73;;;-0.60;97.30;;;;;;4932339;28;20183;-87
2022/12/03 06:55:32;;;;;;;3.13;2.90;;;-0.60;97.30;;;;;;5002653;28;20705;-86
2022/12/03 06:57:57;;;;;;;13.27;5.47;;;-0.60;97.30;;;;;;4981024;28;20275;-88
2022/12/03 07:00:23;;;;;;;3.93;3.73;;;-0.60;97.30;;;;;;4915418;28;20526;-85
2022/12/03 07:02:48;;;;;;;6.00;3.63;;;-0.60;97.30;;;;;;4914677;29;20916;-86
2022/12/03 07:05:14;;;;;;;7.93;4.23;;;-0.60;97.30;;;;;;4921410;29;20174;-85
2022/12/03 07:07:39;;;;;;;12.33;4.73;;;-0.60;97.30;;;;;;4914802;28;20234;-88
2022/12/03 07:10:05;;;;;;;4.43;2.97;;;-0.60;97.30;;;;;;4934332;28;20188;-89
2022/12/03 07:12:31;;;;;;;14.03;5.23;;;-0.60;97.30;;;;;;4915625;28;20252;-86
2022/12/03 07:14:57;;;;;;;13.23;5.90;;;-0.60;97.30;;;;;;4915736;28;20455;-86
2022/12/03 07:17:23;;;;;;;9.20;4.50;;;-0.60;97.30;;;;;;4915523;29;20200;-88
2022/12/03 07:19:48;;;;;;;6.70;5.33;;;-0.60;97.30;;;;;;4915536;28;20231;-86
2022/12/03 07:22:14;;;;;;;6.97;6.57;;;-0.60;97.30;;;;;;4915416;29;20650;-87
2022/12/03 07:24:39;;;;;;;5.67;5.17;;;-0.60;97.30;;;;;;4940217;28;20553;-87
2022/12/03 07:27:05;;;;;;;5.83;5.37;;;-0.60;97.30;;;;;;4943515;28;20583;-86
2022/12/03 07:29:31;;;;;;;3.47;3.10;;;-0.60;97.30;;;;;;4926757;29;20242;-85
2022/12/03 07:31:56;;;;;;;3.80;3.33;;;-0.60;97.30;;;;;;4912046;29;20181;-86
2022/12/03 07:34:22;;;;;;;14.93;5.77;;;-0.60;97.30;;;;;;4916740;28;20222;-85
2022/12/03 07:36:47;;;;;;;5.00;4.70;;;-0.60;97.30;;;;;;4918507;29;20266;-85
2022/12/03 07:39:13;;;;;;;7.47;3.53;;;-0.60;97.30;;;;;;4915168;28;20212;-85
2022/12/03 07:41:38;;;;;;;7.00;4.60;;;-0.60;97.30;;;;;;4914456;29;20176;-88
2022/12/03 07:44:04;;;;;;;5.43;3.33;;;-0.50;97.30;;;;;;4915227;29;20777;-86
2022/12/03 07:46:30;;;;;;;7.47;4.90;;;-0.50;97.30;;;;;;4924431;28;20207;-87
2022/12/03 07:48:55;;;;;;;8.03;6.00;;;-0.50;97.30;;;;;;4909770;29;20565;-87
2022/12/03 07:51:21;;;;;;;10.97;4.30;;;-0.50;97.30;;;;;;4915545;29;20212;-87
2022/12/03 07:53:46;;;;;;;17.33;5.30;;;-0.50;97.30;;;;;;4911255;29;20322;-86
2022/12/03 07:56:12;;;;;;;3.70;3.50;;;-0.50;97.30;;;;;;4914516;29;20215;-87
2022/12/03 07:58:38;;;;;;;5.57;3.77;;;-0.50;97.30;;;;;;4935016;28;20207;-86
2022/12/03 08:01:03;;;;;;;5.70;4.60;;;-0.40;97.30;;;;;;4909304;29;20242;-86
2022/12/03 08:03:29;;;;;;;5.97;5.63;;;-0.40;97.30;;;;;;4914351;29;20279;-88
2022/12/03 08:05:54;;;;;;;14.27;4.50;;;-0.40;97.30;;;;;;4915001;29;20262;-86
2022/12/03 08:08:20;;;;;;;5.10;3.20;;;-0.50;97.30;;;;;;4914356;29;20609;-86
2022/12/03 08:10:45;;;;;;;2.90;2.73;;;-0.50;97.30;;;;;;4902659;28;20242;-84
2022/12/03 08:13:16;;;;;;;6.17;3.83;;;-0.50;97.30;;;;;;4914808;28;20268;-89
2022/12/03 08:15:42;;;;;;;10.40;5.63;;;-0.50;97.30;;;;;;4917896;29;20200;-86
2022/12/03 08:18:27;;;;;;;13.57;4.50;;;-0.50;97.30;;;;;;4911707;29;20460;-86
2022/12/03 08:20:53;;;;;;;5.67;5.37;;;-0.50;97.30;;;;;;4916602;28;20424;-86
2022/12/03 08:23:23;;;;;;;4.90;3.93;;;-0.50;97.30;;;;;;4923836;28;20515;-86
2022/12/03 08:25:50;;;;;;;4.97;4.03;;;-0.50;97.30;;;;;;4911713;29;20208;-85
2022/12/03 08:28:17;;;;;;;7.60;4.60;;;-0.40;97.30;;;;;;4916946;28;20455;-87
2022/12/03 08:30:59;;;;;;;11.80;4.93;;;-0.50;97.30;;;;;;4936478;28;20432;-84
2022/12/03 08:33:26;;;;;;;12.13;5.17;;;-0.40;97.30;;;;;;4917302;28;20497;-84
2022/12/03 08:35:52;;;;;;;18.13;7.23;;;-0.40;97.30;;;;;;4943502;28;20503;-83
2022/12/03 08:38:21;;;;;;;10.33;6.63;;;-0.30;97.30;;;;;;5016888;28;20466;-84
2022/12/03 08:40:49;;;;;;;3.30;3.10;;;-0.30;97.30;;;;;;5015306;28;20942;-84
2022/12/03 08:43:26;;;;;;;10.60;7.33;;;-0.30;97.30;;;;;;5013829;28;20432;-85
2022/12/03 08:45:56;;;;;;;4.80;4.50;;;-0.20;97.30;;;;;;5013515;28;20963;-85
2022/12/03 08:48:31;;;;;;;4.73;4.37;;;-0.20;97.30;;;;;;5012641;28;20423;-85
2022/12/03 08:51:01;;;;;;;8.83;6.13;;;-0.20;97.30;;;;;;5010759;28;20455;-85
2022/12/03 08:53:31;;;;;;;5.03;3.87;;;-0.10;97.30;;;;;;5012656;28;20664;-85
2022/12/03 08:56:19;;;;;;;4.73;4.00;;;-0.10;97.30;;;;;;5012498;28;20507;-84
2022/12/03 08:58:48;;;;;;;12.83;6.23;;;0.00;97.30;;;;;;5010978;28;20456;-84
2022/12/03 09:01:23;;;;;;;12.50;6.47;;;0.00;97.30;;;;;;5011050;28;20416;-85
2022/12/03 09:03:51;;;;;;;7.17;4.57;;;0.10;97.30;;;;;;5012194;28;20427;-84
2022/12/03 09:06:17;;;;;;;3.33;3.13;;;0.10;97.30;;;;;;5012375;28;20537;-84
2022/12/03 09:08:43;;;;;;;34.97;10.00;;;0.10;97.30;;;;;;5013626;28;20977;-85
2022/12/03 09:11:08;;;;;;;11.13;5.73;;;0.10;97.30;;;;;;5013386;28;20173;-84
2022/12/03 09:13:34;;;;;;;7.33;6.07;;;0.20;97.30;;;;;;5011934;28;20208;-84
2022/12/03 09:15:59;;;;;;;12.70;6.63;;;0.10;97.30;;;;;;5011849;28;20284;-85
2022/12/03 09:18:25;;;;;;;11.43;5.10;;;0.10;97.30;;;;;;5013060;28;20683;-84
2022/12/03 09:20:50;;;;;;;11.17;5.70;;;0.10;97.30;;;;;;5011808;28;20177;-87
2022/12/03 09:23:16;;;;;;;5.60;3.83;;;0.10;97.30;;;;;;5011810;28;20184;-85
2022/12/03 09:25:41;;;;;;;13.07;6.03;;;0.20;97.30;;;;;;5013312;28;20251;-86
2022/12/03 09:28:07;;;;;;;8.17;5.43;;;0.20;97.30;;;;;;5014489;28;20211;-84
2022/12/03 09:30:32;;;;;;;4.87;3.80;;;0.20;97.30;;;;;;5012351;28;20647;-85
2022/12/03 09:32:59;;;;;;;7.43;5.03;;;0.20;97.30;;;;;;5010849;28;20177;-88
2022/12/03 09:35:25;;;;;;;4.83;4.23;;;0.20;97.30;;;;;;4996684;28;20671;-84
2022/12/03 09:37:51;;;;;;;5.27;4.97;;;0.20;97.30;;;;;;4982372;28;20466;-86
2022/12/03 09:40:17;;;;;;;3.90;2.87;;;0.20;97.30;;;;;;4924840;28;20432;-88
2022/12/03 09:42:42;;;;;;;6.20;4.57;;;0.20;97.30;;;;;;4916120;29;20202;-86
2022/12/03 09:45:11;;;;;;;6.80;5.23;;;0.20;97.30;;;;;;4967976;28;20440;-87
2022/12/03 09:47:42;;;;;;;7.87;7.27;;;0.20;97.30;;;;;;4946349;28;20183;-87
2022/12/03 09:50:25;;;;;;;3.03;2.83;;;0.20;97.30;;;;;;4930366;28;20432;-85
2022/12/03 09:52:53;;;;;;;6.23;5.90;;;0.20;97.30;;;;;;4988160;28;20436;-85
2022/12/03 09:55:25;;;;;;;2.77;2.60;;;0.20;97.30;;;;;;4954449;28;20503;-86
2022/12/03 09:57:51;;;;;;;10.37;6.27;;;0.20;97.30;;;;;;4916458;29;20424;-85
2022/12/03 10:00:20;;;;;;;12.53;8.00;;;0.20;97.30;;;;;;4919006;29;20513;-85
2022/12/03 10:02:47;;;;;;;8.57;6.30;;;0.20;97.30;;;;;;4937319;28;20438;-88
2022/12/03 10:05:13;;;;;;;7.60;5.13;;;0.20;97.30;;;;;;4920924;28;20510;-84
2022/12/03 10:07:39;;;;;;;7.80;4.80;;;0.10;97.30;;;;;;4924007;28;20408;-84
2022/12/03 10:10:13;;;;;;;7.77;5.47;;;0.10;97.30;;;;;;4924506;28;20523;-83
2022/12/03 10:12:38;;;;;;;7.60;4.63;;;0.10;97.30;;;;;;4946730;28;20423;-89
2022/12/03 10:15:04;;;;;;;15.90;7.57;;;0.10;97.30;;;;;;4942534;29;20411;-89
2022/12/03 10:17:31;;;;;;;4.03;3.80;;;0.20;97.30;;;;;;4952817;29;20210;-89
2022/12/03 10:19:56;;;;;;;10.70;4.60;;;0.20;97.30;;;;;;4941077;28;20507;-90
2022/12/03 10:22:22;;;;;;;12.67;7.03;;;0.30;97.30;;;;;;4937908;29;20447;-92
2022/12/03 10:25:06;;;;;;;9.20;3.60;;;0.30;97.30;;;;;;4938999;28;20187;-90
2022/12/03 10:27:32;;;;;;;8.90;4.17;;;0.40;97.30;;;;;;4932409;29;20440;-90
2022/12/03 10:29:59;;;;;;;7.20;5.50;;;0.40;97.30;;;;;;4947990;28;20430;-90
2022/12/03 10:32:42;;;;;;;14.83;5.83;;;0.50;97.30;;;;;;4936303;28;20270;-90
2022/12/03 10:35:09;;;;;;;3.80;3.57;;;0.50;97.30;;;;;;4941489;28;20416;-90
2022/12/03 10:37:35;;;;;;;8.90;6.70;;;0.50;97.30;;;;;;5017739;28;20456;-91
2022/12/03 10:40:10;;;;;;;9.63;6.00;;;0.60;97.30;;;;;;4953057;28;20543;-90
2022/12/03 10:42:38;;;;;;;4.73;4.43;;;0.60;97.30;;;;;;5009015;28;20319;-88
2022/12/03 10:45:27;;;;;;;6.10;3.40;;;0.70;97.30;;;;;;4929949;28;20455;-88
2022/12/03 10:48:19;;;;;;;12.43;6.03;;;0.70;97.30;;;;;;4960542;28;20428;-87
2022/12/03 10:50:50;;;;;;;3.90;3.40;;;0.80;97.30;;;;;;4996392;28;20515;-88
2022/12/03 10:53:17;;;;;;;7.60;5.73;;;0.80;97.30;;;;;;4992100;28;20423;-87
2022/12/03 10:55:44;;;;;;;8.37;3.93;;;0.80;97.30;;;;;;4970241;28;20501;-88
2022/12/03 10:58:20;;;;;;;6.40;3.73;;;0.80;97.30;;;;;;4982442;28;20419;-88
2022/12/03 11:00:45;;;;;;;10.10;4.37;;;0.90;97.30;;;;;;4995440;28;20419;-87
2022/12/03 11:03:45;;;;;;;10.97;7.13;;;0.90;97.30;;;;;;4978811;28;20848;-87
2022/12/03 11:06:15;;;;;;;15.13;6.53;;;0.90;97.30;;;;;;4928236;28;20717;-88
2022/12/03 11:08:46;;;;;;;9.83;6.43;;;1.00;97.30;;;;;;4976604;28;20446;-87
2022/12/03 11:11:16;;;;;;;4.57;4.03;;;1.00;97.30;;;;;;4976859;28;20447;-87
2022/12/03 11:13:48;;;;;;;7.80;5.90;;;1.00;97.30;;;;;;4996618;28;20846;-88
2022/12/03 11:16:34;;;;;;;3.57;3.37;;;1.00;97.30;;;;;;4983194;28;20478;-88
2022/12/03 11:19:01;;;;;;;3.73;3.53;;;1.00;97.30;;;;;;4993554;28;20494;-88
2022/12/03 11:21:26;;;;;;;7.07;4.80;;;1.00;97.30;;;;;;4929141;28;20420;-87
2022/12/03 11:23:52;;;;;;;7.20;6.80;;;1.10;97.30;;;;;;4929561;29;20495;-88
2022/12/03 11:26:37;;;;;;;15.33;4.93;;;1.00;97.30;;;;;;4930144;29;20294;-89
2022/12/03 11:29:11;;;;;;;14.33;7.07;;;1.00;97.30;;;;;;4930688;28;20188;-88
2022/12/03 11:31:43;;;;;;;13.10;9.10;;;1.10;97.30;;;;;;4995858;28;20423;-87
2022/12/03 11:34:21;;;;;;;10.03;5.60;;;1.10;97.30;;;;;;4986415;28;20930;-88
2022/12/03 11:37:08;;;;;;;11.50;6.47;;;1.00;97.30;;;;;;4971430;28;20875;-88
2022/12/03 11:39:49;;;;;;;17.53;7.33;;;1.00;97.30;;;;;;5010370;28;20586;-88
2022/12/03 11:42:27;;;;;;;3.73;3.03;;;1.00;97.30;;;;;;4941632;28;20515;-87
2022/12/03 11:45:04;;;;;;;5.87;5.57;;;1.00;97.30;;;;;;4951940;28;20438;-88
2022/12/03 11:47:35;;;;;;;12.40;4.90;;;1.00;97.30;;;;;;4930487;28;20944;-88
2022/12/03 11:50:16;;;;;;;6.50;4.63;;;1.00;97.30;;;;;;4981826;28;20432;-87
2022/12/03 11:52:44;;;;;;;6.13;5.27;;;1.00;97.30;;;;;;4929959;28;20423;-88
2022/12/03 11:55:17;;;;;;;6.30;4.77;;;1.00;97.30;;;;;;4930577;29;20486;-88
2022/12/03 11:57:42;;;;;;;6.70;4.80;;;1.00;97.30;;;;;;4968720;28;20813;-88
2022/12/03 12:00:22;;;;;;;3.27;2.97;;;1.00;97.30;;;;;;4996102;28;20474;-88
2022/12/03 12:02:49;;;;;;;12.60;5.80;;;0.90;97.30;;;;;;4995362;28;20713;-90
2022/12/03 12:05:25;;;;;;;12.53;6.83;;;0.90;97.30;;;;;;4998854;28;20557;-89
2022/12/03 12:07:51;;;;;;;17.60;4.50;;;0.90;97.30;;;;;;4946486;28;20434;-88
2022/12/03 12:10:38;;;;;;;3.33;3.23;;;0.90;97.30;;;;;;4932981;28;20496;-88
2022/12/03 12:13:04;;;;;;;6.43;4.63;;;1.00;97.30;;;;;;4935149;28;20423;-88
2022/12/03 12:15:40;;;;;;;14.70;4.67;;;1.00;97.30;;;;;;5000348;28;20611;-88
2022/12/03 12:18:37;;;;;;;8.93;5.17;;;0.90;97.30;;;;;;4999620;28;20197;-88
2022/12/03 12:21:41;;;;;;;15.73;8.80;;;1.00;97.30;;;;;;4995508;28;20503;-88
2022/12/03 12:24:45;;;;;;;17.30;7.37;;;1.00;97.30;;;;;;4959281;28;20415;-88
2022/12/03 12:27:21;;;;;;;8.00;4.57;;;1.00;97.30;;;;;;4997610;28;20447;-88
2022/12/03 12:29:53;;;;;;;6.23;3.70;;;1.00;97.30;;;;;;4998807;28;20473;-88
2022/12/03 12:32:54;;;;;;;12.97;7.10;;;1.00;97.30;;;;;;4982104;28;20507;-88
2022/12/03 12:35:31;;;;;;;18.03;7.60;;;1.10;97.30;;;;;;4948472;28;20526;-89
2022/12/03 12:45:51;;;;;;;20.97;7.87;;;1.00;97.30;;;;;;4996793;28;20474;-87
2022/12/03 12:48:31;;;;;;;5.80;4.40;;;0.90;97.30;;;;;;4974312;28;20445;-87
2022/12/03 12:51:21;;;;;;;7.13;6.73;;;0.90;97.30;;;;;;4957442;28;21005;-86
2022/12/03 12:53:52;;;;;;;11.50;4.63;;;0.90;97.30;;;;;;4936080;28;20489;-87
2022/12/03 13:00:01;;;;;;;7.63;4.07;;;0.90;97.30;;;;;;4941006;28;20479;-87
2022/12/03 13:02:29;;;;;;;8.60;5.60;;;0.80;97.30;;;;;;5008206;28;20519;-88
2022/12/03 13:05:01;;;;;;;17.00;4.83;;;0.80;97.30;;;;;;4982966;28;20427;-86
2022/12/03 13:07:26;;;;;;;19.23;7.80;;;0.80;97.30;;;;;;4995271;28;20447;-87
2022/12/03 13:09:54;;;;;;;9.93;5.93;;;0.80;97.30;;;;;;4933256;28;21002;-86
2022/12/03 13:12:23;;;;;;;8.50;4.97;;;0.70;97.30;;;;;;4937426;28;20760;-85
2022/12/03 13:15:02;;;;;;;27.60;7.87;;;0.70;97.30;;;;;;4972967;28;21008;-85
2022/12/03 13:17:41;;;;;;;6.43;3.57;;;0.70;97.30;;;;;;5032196;28;20441;-85
2022/12/03 13:20:22;;;;;;;11.97;4.23;;;0.70;97.30;;;;;;4980863;28;20450;-88
2022/12/03 13:22:50;;;;;;;6.83;5.30;;;0.60;97.30;;;;;;4946552;28;20435;-87
2022/12/03 13:25:40;;;;;;;6.27;5.93;;;0.60;97.30;;;;;;5003752;28;20426;-85
2022/12/03 13:28:07;;;;;;;14.53;7.93;;;0.60;97.30;;;;;;5011158;28;20442;-85